Terminal Aerodrome Forecast
Issued by NWS

Home | Current Version | Previous Version | Text Only | Print | Product List | Glossary On
Versions: 1 2 3 4 5 6 7 8 9 10 11 12 13 14 15 16 17 18
000
FTUS46 KLOX 222336
TAFSBA
TAF
KSBA 222336Z 2300/2324 26015G25KT P6SM SCT050
     FM230300 29008KT P6SM SCT040
     FM230900 VRB03KT P6SM SCT030
     FM231800 23008KT P6SM SCT030
     FM232100 25014G20KT P6SM SCT030=

USA.gov is the U.S. government's official web portal to all federal, state and local government web resources and services.